Time;durP1;ratioP1;P1;durP2;ratioP2;P2;SDS_P1;SDS_P2;PMS_P1;PMS_P2;Temp;Humidity;BMP_temperature;BMP_pressure;BME280_temperature;BME280_humidity;BME280_pressure;Samples;Min_cycle;Max_cycle;Signal;HPM_P1;HPM_P2
2023/05/22 00:00:55;;;;;;;16.00;14.70;;;17.50;99.90;;;;;;6135741;23;20559;-75
2023/05/22 00:03:24;;;;;;;16.17;14.97;;;17.50;99.90;;;;;;6136469;23;21469;-75
2023/05/22 00:05:52;;;;;;;16.27;14.87;;;17.50;99.90;;;;;;6135151;23;20432;-75
2023/05/22 00:08:19;;;;;;;16.37;15.17;;;17.50;99.90;;;;;;6131878;23;20544;-75
2023/05/22 00:10:46;;;;;;;16.03;14.63;;;17.40;99.90;;;;;;6143744;23;20438;-75
2023/05/22 00:13:13;;;;;;;17.30;15.90;;;17.30;99.90;;;;;;6136768;23;20437;-75
2023/05/22 00:15:40;;;;;;;17.27;15.87;;;17.30;99.90;;;;;;6128007;23;20468;-75
2023/05/22 00:18:07;;;;;;;16.80;15.30;;;17.20;99.90;;;;;;6133898;23;20971;-75
2023/05/22 00:20:37;;;;;;;17.40;15.93;;;17.20;99.90;;;;;;6134488;23;20485;-75
2023/05/22 00:23:08;;;;;;;17.77;16.27;;;17.10;99.90;;;;;;6139149;23;20469;-74
2023/05/22 00:25:36;;;;;;;17.47;15.90;;;17.10;99.90;;;;;;6133024;23;20987;-75
2023/05/22 00:28:03;;;;;;;17.60;16.20;;;17.20;99.90;;;;;;6137284;23;20472;-75
2023/05/22 00:30:30;;;;;;;19.00;17.40;;;17.20;99.90;;;;;;6137198;23;20436;-75
2023/05/22 00:32:57;;;;;;;17.50;15.90;;;17.20;99.90;;;;;;6129220;23;20552;-75
2023/05/22 00:35:24;;;;;;;17.53;16.13;;;17.10;99.90;;;;;;6127823;23;20447;-74
2023/05/22 00:37:53;;;;;;;17.40;15.97;;;17.10;99.90;;;;;;6146785;23;20675;-75
2023/05/22 00:40:21;;;;;;;18.27;16.63;;;17.10;99.90;;;;;;6142099;23;20543;-75
2023/05/22 00:42:48;;;;;;;17.37;16.00;;;17.10;99.90;;;;;;6136783;23;20516;-75
2023/05/22 00:45:15;;;;;;;17.33;15.93;;;17.00;99.90;;;;;;6144870;23;20440;-75
2023/05/22 00:47:43;;;;;;;26.93;24.77;;;16.90;99.90;;;;;;6148122;23;20545;-75
2023/05/22 00:50:11;;;;;;;21.50;19.70;;;16.90;99.90;;;;;;6144971;23;20437;-75
2023/05/22 00:52:42;;;;;;;21.20;19.43;;;16.80;99.90;;;;;;6025364;23;20448;-75
2023/05/22 00:55:11;;;;;;;19.83;17.97;;;16.80;99.90;;;;;;6040996;23;20433;-75
2023/05/22 00:57:40;;;;;;;18.67;17.03;;;16.80;99.90;;;;;;6147914;23;20960;-75
2023/05/22 01:00:09;;;;;;;17.97;16.50;;;16.80;99.90;;;;;;6146397;23;20947;-75
2023/05/22 01:02:37;;;;;;;19.07;17.53;;;16.80;99.90;;;;;;6142634;23;20436;-75
2023/05/22 01:05:05;;;;;;;20.53;18.83;;;16.80;99.90;;;;;;6144804;23;20516;-75
2023/05/22 01:07:36;;;;;;;18.57;16.87;;;16.70;99.90;;;;;;6139496;23;20452;-75
2023/05/22 01:10:04;;;;;;;19.53;17.83;;;16.70;99.90;;;;;;6124762;23;20773;-75
2023/05/22 01:12:38;;;;;;;18.50;16.93;;;16.60;99.90;;;;;;6141516;23;20444;-75
2023/05/22 01:15:16;;;;;;;19.37;17.87;;;16.60;99.90;;;;;;6120685;23;21073;-75
2023/05/22 01:17:55;;;;;;;19.17;17.57;;;16.60;99.90;;;;;;6139014;23;20531;-75
2023/05/22 01:20:28;;;;;;;18.60;17.00;;;16.50;99.90;;;;;;6131895;23;21949;-75
2023/05/22 01:23:42;;;;;;;19.70;18.00;;;16.40;99.90;;;;;;6145226;23;20520;-75
2023/05/22 01:26:54;;;;;;;18.87;17.37;;;16.40;99.90;;;;;;6142481;23;20436;-75
2023/05/22 01:29:41;;;;;;;20.23;18.57;;;16.30;99.90;;;;;;6082129;23;20487;-75
2023/05/22 01:32:12;;;;;;;20.77;18.90;;;16.20;99.90;;;;;;6135474;23;20511;-75
2023/05/22 01:34:44;;;;;;;21.60;19.70;;;16.10;99.90;;;;;;6137840;23;20451;-74
2023/05/22 01:37:13;;;;;;;21.00;19.20;;;16.00;99.90;;;;;;6140595;23;21007;-74
2023/05/22 01:39:41;;;;;;;22.40;20.50;;;15.90;99.90;;;;;;6143581;23;20519;-75
2023/05/22 01:42:09;;;;;;;22.53;20.40;;;15.80;99.90;;;;;;6144578;23;20971;-75
2023/05/22 01:44:36;;;;;;;23.33;21.33;;;15.70;99.90;;;;;;6174790;23;20440;-74
2023/05/22 01:47:04;;;;;;;22.13;20.23;;;15.70;99.90;;;;;;6166650;23;20538;-75
2023/05/22 01:49:35;;;;;;;21.27;19.37;;;15.70;99.90;;;;;;6166268;23;20923;-74
2023/05/22 01:52:11;;;;;;;21.80;19.90;;;15.60;99.90;;;;;;6155720;23;20451;-75
2023/05/22 01:54:44;;;;;;;21.23;19.43;;;15.50;99.90;;;;;;6166155;23;20824;-75
2023/05/22 01:57:17;;;;;;;21.50;19.50;;;15.50;99.90;;;;;;6168824;23;20993;-75
2023/05/22 01:59:49;;;;;;;20.50;18.87;;;15.50;99.90;;;;;;6168067;23;20497;-75
2023/05/22 02:02:19;;;;;;;21.20;19.40;;;15.50;99.90;;;;;;6166771;23;20427;-74
2023/05/22 02:04:55;;;;;;;21.40;19.50;;;15.80;99.90;;;;;;6168391;23;20519;-75
2023/05/22 02:07:24;;;;;;;21.27;19.17;;;15.40;99.90;;;;;;6168750;23;20526;-75
2023/05/22 02:09:54;;;;;;;20.60;19.00;;;15.40;99.90;;;;;;6157554;23;20516;-74
2023/05/22 02:12:22;;;;;;;19.90;18.00;;;15.30;99.90;;;;;;6165899;23;20432;-74
2023/05/22 02:14:50;;;;;;;19.33;17.73;;;15.30;99.90;;;;;;6168122;23;20431;-75
2023/05/22 02:17:17;;;;;;;20.13;18.53;;;15.20;99.90;;;;;;6166705;23;20459;-75
2023/05/22 02:19:44;;;;;;;21.37;19.57;;;15.20;99.90;;;;;;6166071;23;20432;-75
2023/05/22 02:22:13;;;;;;;20.93;19.03;;;15.10;99.90;;;;;;6167836;23;20467;-75
2023/05/22 02:24:41;;;;;;;21.27;19.20;;;15.10;99.90;;;;;;6167952;23;20846;-74
2023/05/22 02:27:08;;;;;;;21.53;19.43;;;15.00;99.90;;;;;;6160690;23;21001;-75
2023/05/22 02:29:35;;;;;;;20.73;18.93;;;15.00;99.90;;;;;;6167149;23;20549;-75
2023/05/22 02:32:02;;;;;;;20.57;18.77;;;15.00;99.90;;;;;;6167318;23;20953;-75
2023/05/22 02:34:30;;;;;;;20.00;18.03;;;15.00;99.90;;;;;;6167042;23;20443;-75
2023/05/22 02:36:58;;;;;;;22.20;20.30;;;14.90;99.90;;;;;;6154222;23;20978;-75
2023/05/22 02:39:27;;;;;;;23.80;21.80;;;14.90;99.90;;;;;;6162450;23;20440;-75
2023/05/22 02:41:54;;;;;;;22.77;20.90;;;14.90;99.90;;;;;;6157224;23;20838;-74
2023/05/22 02:44:21;;;;;;;21.77;19.90;;;14.90;99.90;;;;;;6164397;23;20438;-75
2023/05/22 02:46:48;;;;;;;22.10;19.90;;;14.80;99.90;;;;;;6168086;23;20469;-75
2023/05/22 02:49:15;;;;;;;21.33;19.50;;;14.80;99.90;;;;;;6171808;23;20435;-75
2023/05/22 02:51:46;;;;;;;22.17;20.10;;;14.80;99.90;;;;;;6182428;23;20500;-75
2023/05/22 02:54:15;;;;;;;21.83;19.80;;;14.80;99.90;;;;;;6172200;23;20841;-74
2023/05/22 02:56:43;;;;;;;20.20;18.37;;;14.80;99.90;;;;;;6175027;23;20476;-75
2023/05/22 02:59:10;;;;;;;21.13;19.13;;;14.80;99.90;;;;;;6163320;23;21070;-75
2023/05/22 03:01:38;;;;;;;21.37;19.50;;;14.80;99.90;;;;;;6171153;23;20546;-75
2023/05/22 03:04:06;;;;;;;21.00;19.00;;;14.80;99.90;;;;;;6162787;23;20436;-75
2023/05/22 03:06:33;;;;;;;19.77;17.97;;;14.80;99.90;;;;;;6174773;23;20578;-75
2023/05/22 03:09:02;;;;;;;20.70;19.00;;;14.80;99.90;;;;;;6171600;23;20519;-75
2023/05/22 03:11:29;;;;;;;21.20;19.20;;;14.80;99.90;;;;;;6168642;23;20432;-75
2023/05/22 03:13:58;;;;;;;21.57;19.70;;;14.80;99.90;;;;;;6165641;23;20432;-75
2023/05/22 03:16:25;;;;;;;22.70;20.60;;;14.80;99.90;;;;;;6159674;23;20462;-75
2023/05/22 03:19:07;;;;;;;21.00;19.10;;;14.80;99.90;;;;;;6166933;23;20535;-75
2023/05/22 03:21:35;;;;;;;19.90;18.10;;;14.80;99.90;;;;;;6165097;23;20460;-75
2023/05/22 03:24:02;;;;;;;19.03;17.33;;;14.80;99.90;;;;;;6168913;23;20431;-75
2023/05/22 03:26:29;;;;;;;19.60;17.90;;;14.90;99.90;;;;;;6159188;23;21847;-75
2023/05/22 03:28:57;;;;;;;20.43;18.63;;;14.80;99.90;;;;;;6156856;23;20505;-75
2023/05/22 03:31:25;;;;;;;20.57;18.90;;;14.80;99.90;;;;;;6165712;23;20481;-75
2023/05/22 03:33:53;;;;;;;20.30;18.60;;;14.80;99.90;;;;;;6162423;23;20469;-74
2023/05/22 03:36:21;;;;;;;19.87;18.20;;;14.80;99.90;;;;;;6165274;23;20431;-75
2023/05/22 03:38:48;;;;;;;20.70;19.00;;;14.80;99.90;;;;;;6168321;23;20470;-76
2023/05/22 03:41:15;;;;;;;20.33;18.53;;;14.90;99.90;;;;;;6175653;23;20931;-78
2023/05/22 03:43:43;;;;;;;20.97;19.17;;;14.90;99.90;;;;;;6172534;23;20874;-90
2023/05/22 03:46:11;;;;;;;21.03;18.87;;;14.90;99.90;;;;;;6176446;23;20427;-84
2023/05/22 03:48:38;;;;;;;19.33;17.73;;;14.90;99.90;;;;;;6177691;23;20459;-92
2023/05/22 03:51:06;;;;;;;18.77;17.27;;;15.00;99.90;;;;;;6167971;23;20474;-94
2023/05/22 03:53:33;;;;;;;19.83;18.17;;;15.00;99.90;;;;;;6179224;23;20459;-90
2023/05/22 03:56:00;;;;;;;19.27;17.67;;;15.10;99.90;;;;;;6179621;23;20515;-89
2023/05/22 03:58:27;;;;;;;19.60;17.70;;;15.10;99.90;;;;;;6177813;23;20523;-77
2023/05/22 04:00:57;;;;;;;20.03;18.30;;;15.00;99.90;;;;;;6172115;23;20520;-76
2023/05/22 04:03:25;;;;;;;19.40;17.60;;;14.90;99.90;;;;;;6177108;23;20432;-75
2023/05/22 04:05:52;;;;;;;20.30;18.50;;;14.80;99.90;;;;;;6177899;23;20538;-76
2023/05/22 04:08:20;;;;;;;20.73;19.03;;;14.80;99.90;;;;;;6165410;23;20539;-75
2023/05/22 04:10:47;;;;;;;19.73;17.90;;;14.80;99.90;;;;;;6161791;23;20467;-75
2023/05/22 04:13:15;;;;;;;19.93;18.23;;;14.70;99.90;;;;;;6176964;23;20468;-75
2023/05/22 04:15:44;;;;;;;21.10;19.30;;;14.70;99.90;;;;;;6158666;23;20488;-75
2023/05/22 04:18:11;;;;;;;20.40;18.67;;;14.60;99.90;;;;;;6177352;23;20500;-76
2023/05/22 04:20:40;;;;;;;22.63;20.73;;;14.50;99.90;;;;;;6178150;23;20440;-76
2023/05/22 04:23:07;;;;;;;21.63;19.73;;;14.50;99.90;;;;;;6174360;23;20459;-75
2023/05/22 04:25:35;;;;;;;19.97;18.10;;;14.50;99.90;;;;;;6162070;23;20429;-83
2023/05/22 04:28:03;;;;;;;21.27;19.27;;;14.60;99.90;;;;;;6176733;23;20894;-85
2023/05/22 04:30:32;;;;;;;20.47;18.77;;;14.60;99.90;;;;;;6179581;23;20480;-85
2023/05/22 04:33:00;;;;;;;21.33;19.53;;;14.60;99.90;;;;;;6161406;23;20456;-85
2023/05/22 04:35:29;;;;;;;20.93;19.23;;;14.60;99.90;;;;;;6173389;23;20454;-84
2023/05/22 04:38:00;;;;;;;21.90;20.00;;;14.70;99.90;;;;;;6179419;23;20965;-85
2023/05/22 04:40:29;;;;;;;20.20;18.40;;;14.70;99.90;;;;;;6180474;23;20436;-84
2023/05/22 04:42:58;;;;;;;20.67;18.87;;;14.80;99.90;;;;;;6178633;23;20467;-86
2023/05/22 04:45:25;;;;;;;21.77;20.07;;;14.80;99.90;;;;;;6179312;23;20462;-88
2023/05/22 04:47:53;;;;;;;19.67;18.00;;;14.90;99.90;;;;;;6178411;23;21002;-85
2023/05/22 04:50:20;;;;;;;20.90;19.03;;;14.90;99.90;;;;;;6169732;23;20983;-86
2023/05/22 04:52:48;;;;;;;22.20;20.30;;;14.90;99.90;;;;;;6169925;23;20447;-85
2023/05/22 04:55:17;;;;;;;20.17;18.47;;;14.90;99.90;;;;;;6175124;23;20834;-84
2023/05/22 04:57:44;;;;;;;19.47;17.77;;;15.00;99.90;;;;;;6163321;23;20738;-79
2023/05/22 05:00:13;;;;;;;20.20;18.07;;;15.00;99.90;;;;;;6176166;23;20514;-85
2023/05/22 05:02:41;;;;;;;20.90;19.10;;;15.00;99.90;;;;;;6173926;23;20468;-84
2023/05/22 05:05:08;;;;;;;20.47;18.57;;;15.00;99.90;;;;;;6174754;23;20787;-84
2023/05/22 05:07:37;;;;;;;21.17;19.37;;;15.10;99.90;;;;;;6186664;23;20783;-84
2023/05/22 05:10:05;;;;;;;19.07;17.40;;;15.10;99.90;;;;;;6181534;23;20435;-83
2023/05/22 05:12:34;;;;;;;19.40;17.70;;;15.20;99.90;;;;;;6179370;23;20918;-83
2023/05/22 05:15:01;;;;;;;19.47;17.77;;;15.30;99.90;;;;;;6175854;23;20547;-83
2023/05/22 05:17:28;;;;;;;18.97;17.23;;;15.50;99.90;;;;;;6162279;23;20466;-84
2023/05/22 05:19:55;;;;;;;20.40;18.37;;;15.40;99.90;;;;;;6139607;23;20478;-84
2023/05/22 05:22:22;;;;;;;19.93;18.30;;;15.40;99.90;;;;;;6156110;23;20463;-86
2023/05/22 05:24:50;;;;;;;18.70;17.13;;;15.40;99.90;;;;;;6132941;23;20432;-84
2023/05/22 05:27:17;;;;;;;18.50;16.97;;;15.50;99.90;;;;;;6141156;23;20453;-84
2023/05/22 05:29:45;;;;;;;18.03;16.53;;;15.70;99.90;;;;;;6161572;23;20522;-84
2023/05/22 05:32:14;;;;;;;18.97;17.30;;;15.90;99.90;;;;;;6161378;23;20439;-84
2023/05/22 05:34:41;;;;;;;19.30;17.70;;;16.00;99.90;;;;;;6138711;23;20444;-84
2023/05/22 05:37:08;;;;;;;19.57;17.80;;;16.20;99.90;;;;;;6142385;23;20459;-85
2023/05/22 05:39:35;;;;;;;19.27;17.63;;;16.30;99.90;;;;;;6165696;23;20488;-83
2023/05/22 05:42:02;;;;;;;18.97;17.37;;;16.40;99.90;;;;;;6128708;23;20544;-81
2023/05/22 05:44:30;;;;;;;20.60;18.80;;;16.40;99.90;;;;;;6140815;23;20441;-84
2023/05/22 05:46:58;;;;;;;19.87;18.07;;;16.40;99.90;;;;;;6167057;23;20479;-83
2023/05/22 05:49:25;;;;;;;19.47;17.90;;;16.50;99.90;;;;;;6142662;23;20490;-84
2023/05/22 05:51:52;;;;;;;18.20;16.70;;;16.60;99.90;;;;;;6171802;23;20938;-85
2023/05/22 05:54:20;;;;;;;17.80;16.40;;;16.70;99.90;;;;;;6174101;23;20447;-85
2023/05/22 05:56:47;;;;;;;19.10;17.53;;;16.90;99.90;;;;;;6178962;23;20451;-85
2023/05/22 05:59:14;;;;;;;19.40;17.70;;;17.00;99.90;;;;;;6166529;23;20496;-85
2023/05/22 06:01:45;;;;;;;19.23;17.50;;;17.30;99.90;;;;;;6183553;23;20483;-85
2023/05/22 06:04:14;;;;;;;16.03;14.57;;;17.50;99.90;;;;;;6164473;23;20439;-85
2023/05/22 06:06:43;;;;;;;16.97;15.57;;;17.70;99.90;;;;;;6165177;23;20811;-88
2023/05/22 06:09:10;;;;;;;16.97;15.67;;;17.90;99.90;;;;;;6157477;23;20459;-88
2023/05/22 06:11:37;;;;;;;17.17;15.77;;;18.30;99.90;;;;;;6165724;23;20440;-87
2023/05/22 06:14:07;;;;;;;17.53;16.10;;;18.30;99.90;;;;;;6160285;23;20440;-87
2023/05/22 06:16:34;;;;;;;16.53;15.23;;;18.40;99.90;;;;;;6168710;23;20471;-87
2023/05/22 06:19:01;;;;;;;17.97;16.37;;;18.50;99.90;;;;;;6161385;23;20475;-88
2023/05/22 06:21:30;;;;;;;17.03;15.63;;;18.60;99.90;;;;;;6168808;23;20485;-87
2023/05/22 06:24:00;;;;;;;17.43;15.93;;;18.70;99.90;;;;;;6160094;23;20469;-90
2023/05/22 06:26:27;;;;;;;15.63;14.43;;;18.80;99.90;;;;;;6146011;23;20459;-86
2023/05/22 06:28:54;;;;;;;17.63;16.17;;;18.90;99.90;;;;;;6157394;23;20439;-88
2023/05/22 06:31:23;;;;;;;16.33;15.03;;;19.10;99.90;;;;;;6166443;23;20417;-88
2023/05/22 06:33:50;;;;;;;15.63;14.33;;;19.20;99.90;;;;;;6154949;23;20447;-76
2023/05/22 06:36:17;;;;;;;16.27;14.97;;;19.40;99.90;;;;;;6169131;23;21100;-76
2023/05/22 06:38:46;;;;;;;16.80;15.50;;;19.50;99.90;;;;;;6145058;23;20440;-75
2023/05/22 06:41:13;;;;;;;16.70;15.30;;;19.60;99.90;;;;;;6145992;23;20460;-75
2023/05/22 06:43:40;;;;;;;16.03;14.80;;;19.70;99.90;;;;;;6123296;23;20551;-76
2023/05/22 06:46:07;;;;;;;17.17;15.67;;;19.80;99.90;;;;;;6142105;23;20460;-75
2023/05/22 06:48:34;;;;;;;16.37;15.13;;;20.00;99.90;;;;;;6131806;23;20435;-76
2023/05/22 06:51:03;;;;;;;13.80;12.60;;;20.10;99.90;;;;;;6135127;23;20528;-76
2023/05/22 06:53:30;;;;;;;13.90;12.80;;;20.30;99.90;;;;;;6150260;23;20454;-76
2023/05/22 06:55:58;;;;;;;16.70;15.50;;;20.50;99.90;;;;;;6130652;23;20541;-76
2023/05/22 06:58:25;;;;;;;17.33;15.83;;;20.70;99.90;;;;;;6150456;23;20431;-76
2023/05/22 07:00:54;;;;;;;17.20;15.70;;;20.80;99.90;;;;;;6148697;23;20443;-75
2023/05/22 07:03:21;;;;;;;14.00;12.87;;;20.70;99.90;;;;;;6170409;23;20506;-75
2023/05/22 07:05:48;;;;;;;17.13;15.70;;;20.70;99.90;;;;;;6171032;23;20438;-76
2023/05/22 07:08:15;;;;;;;16.50;15.27;;;20.60;99.90;;;;;;6163363;23;20432;-76
2023/05/22 07:10:42;;;;;;;16.53;15.13;;;20.60;99.90;;;;;;6164172;23;20432;-76
2023/05/22 07:13:11;;;;;;;15.17;13.87;;;20.70;99.90;;;;;;6167869;23;20431;-76
2023/05/22 07:15:38;;;;;;;12.90;11.80;;;20.90;99.90;;;;;;6167962;23;21672;-76
2023/05/22 07:18:05;;;;;;;11.63;10.73;;;21.10;99.90;;;;;;6162116;23;20511;-76
2023/05/22 07:20:32;;;;;;;13.33;12.00;;;21.30;99.90;;;;;;6175789;23;20412;-76
2023/05/22 07:22:59;;;;;;;12.50;11.50;;;21.60;99.90;;;;;;6164008;23;20486;-76
2023/05/22 07:25:26;;;;;;;14.30;13.10;;;21.80;99.90;;;;;;6165480;23;20523;-76
2023/05/22 07:27:57;;;;;;;13.73;12.43;;;22.10;99.90;;;;;;6154682;23;20488;-76
2023/05/22 07:30:25;;;;;;;14.20;13.20;;;22.40;99.90;;;;;;6174669;23;20469;-76
2023/05/22 07:32:52;;;;;;;13.50;12.20;;;22.70;99.90;;;;;;6154783;23;20460;-76
2023/05/22 07:35:19;;;;;;;12.97;11.97;;;23.10;99.90;;;;;;6140448;23;20977;-76
2023/05/22 07:37:46;;;;;;;13.50;12.40;;;23.40;99.90;;;;;;6136270;23;20454;-76
2023/05/22 07:40:13;;;;;;;12.70;11.80;;;23.80;99.90;;;;;;6134630;23;20795;-76
2023/05/22 07:42:41;;;;;;;13.13;12.13;;;24.00;99.90;;;;;;6154741;23;20543;-76
2023/05/22 07:45:09;;;;;;;12.50;11.60;;;24.20;99.90;;;;;;6143113;23;20439;-75
2023/05/22 07:47:38;;;;;;;11.40;10.60;;;24.10;99.90;;;;;;6147223;23;20487;-76
2023/05/22 07:50:07;;;;;;;12.37;11.37;;;24.30;99.90;;;;;;6152701;23;20943;-77
2023/05/22 07:52:34;;;;;;;11.63;10.73;;;24.50;99.90;;;;;;6150423;23;20470;-76
2023/05/22 07:55:01;;;;;;;12.10;11.13;;;24.80;99.90;;;;;;6146601;23;20515;-76
2023/05/22 07:57:29;;;;;;;11.13;10.33;;;25.20;99.90;;;;;;6130707;23;20544;-75
2023/05/22 07:59:56;;;;;;;11.57;10.57;;;25.50;99.90;;;;;;6152968;23;20482;-75
2023/05/22 08:02:23;;;;;;;10.70;9.90;;;25.80;99.90;;;;;;6149790;23;20455;-76
2023/05/22 08:04:51;;;;;;;10.53;9.53;;;26.10;99.90;;;;;;6159277;23;20436;-75
2023/05/22 08:07:18;;;;;;;11.33;10.53;;;26.30;99.90;;;;;;6167566;23;20452;-75
2023/05/22 08:09:45;;;;;;;9.73;8.83;;;26.50;99.90;;;;;;6156256;23;20439;-76
2023/05/22 08:12:12;;;;;;;9.70;9.00;;;26.70;99.90;;;;;;6161252;23;20883;-76
2023/05/22 08:14:40;;;;;;;11.10;10.23;;;26.90;99.90;;;;;;6158151;23;20484;-75
2023/05/22 08:17:07;;;;;;;9.90;9.20;;;26.80;99.90;;;;;;6148915;23;20451;-75
2023/05/22 08:19:34;;;;;;;9.80;9.10;;;26.80;99.90;;;;;;6145733;23;20444;-75
2023/05/22 08:22:03;;;;;;;10.40;9.70;;;26.70;99.90;;;;;;6154179;23;20495;-75
2023/05/22 08:24:30;;;;;;;9.63;9.03;;;26.60;99.90;;;;;;6142002;23;20539;-76
2023/05/22 08:26:59;;;;;;;10.50;9.70;;;26.60;99.90;;;;;;6146082;23;20456;-78
2023/05/22 08:29:26;;;;;;;9.40;8.60;;;26.70;99.90;;;;;;6157517;23;20436;-74
2023/05/22 08:31:55;;;;;;;9.77;9.07;;;26.60;99.90;;;;;;6161119;23;20777;-77
2023/05/22 08:34:22;;;;;;;9.10;8.50;;;26.50;99.90;;;;;;6164696;23;20474;-76
2023/05/22 08:36:49;;;;;;;9.80;8.93;;;26.50;99.90;;;;;;6137612;23;20461;-76
2023/05/22 08:39:18;;;;;;;9.77;9.07;;;26.60;99.90;;;;;;6172111;23;20783;-76
2023/05/22 08:41:46;;;;;;;10.30;9.50;;;26.80;99.90;;;;;;6173861;23;20420;-77
2023/05/22 08:44:13;;;;;;;10.00;9.20;;;27.10;99.90;;;;;;6168181;23;21430;-76
2023/05/22 08:46:42;;;;;;;9.20;8.50;;;27.30;99.90;;;;;;6155094;23;20478;-76
2023/05/22 08:49:10;;;;;;;11.77;10.73;;;27.40;99.90;;;;;;6164002;23;20435;-76
2023/05/22 08:51:39;;;;;;;11.03;10.23;;;27.50;99.90;;;;;;6160669;23;20434;-76
2023/05/22 08:54:07;;;;;;;10.03;9.33;;;27.60;99.90;;;;;;6158611;23;20999;-76
2023/05/22 08:56:37;;;;;;;11.10;10.10;;;27.80;99.90;;;;;;6167385;23;20526;-76
2023/05/22 08:59:05;;;;;;;10.40;9.60;;;28.20;99.90;;;;;;6169522;23;20919;-76
2023/05/22 09:01:33;;;;;;;10.50;9.63;;;28.50;99.90;;;;;;6159907;23;20489;-76
2023/05/22 09:04:01;;;;;;;10.50;9.80;;;28.80;99.90;;;;;;6140637;23;20455;-76
2023/05/22 09:06:28;;;;;;;10.60;9.90;;;29.00;99.90;;;;;;6152776;23;20475;-77
2023/05/22 09:08:56;;;;;;;8.90;8.30;;;29.20;99.90;;;;;;6151733;23;21069;-77
2023/05/22 09:11:24;;;;;;;10.90;10.10;;;29.40;99.90;;;;;;6151929;23;20539;-76
2023/05/22 09:13:52;;;;;;;10.03;9.33;;;29.60;99.90;;;;;;6150522;23;20481;-76
2023/05/22 09:16:19;;;;;;;10.70;9.70;;;29.90;99.90;;;;;;6172891;23;20519;-77
2023/05/22 09:18:47;;;;;;;10.37;9.77;;;30.10;99.90;;;;;;6177706;23;20492;-76
2023/05/22 09:21:14;;;;;;;10.70;9.90;;;30.30;99.70;;;;;;6168402;23;20935;-76
2023/05/22 09:23:41;;;;;;;8.90;8.30;;;30.20;99.90;;;;;;6151357;23;20475;-76
2023/05/22 09:26:08;;;;;;;10.90;9.97;;;30.30;99.90;;;;;;6159202;23;20467;-76
2023/05/22 09:28:36;;;;;;;9.90;9.20;;;30.60;99.70;;;;;;6148654;23;20519;-77
2023/05/22 09:31:05;;;;;;;10.50;9.80;;;31.00;99.30;;;;;;6172684;23;20444;-76
2023/05/22 09:33:32;;;;;;;9.70;9.00;;;31.30;98.30;;;;;;6172375;23;20923;-76
2023/05/22 09:36:00;;;;;;;10.27;9.57;;;31.60;97.40;;;;;;6159622;23;20454;-77
2023/05/22 09:38:30;;;;;;;9.97;9.17;;;31.70;96.40;;;;;;6177011;23;20511;-77
2023/05/22 09:40:57;;;;;;;10.03;9.20;;;31.80;96.50;;;;;;6156678;23;20436;-76
2023/05/22 09:43:25;;;;;;;11.60;10.70;;;31.80;96.60;;;;;;6151805;23;20482;-77
2023/05/22 09:45:57;;;;;;;10.80;10.00;;;31.60;96.40;;;;;;6137437;23;20568;-74
2023/05/22 09:48:26;;;;;;;10.50;9.70;;;31.50;96.60;;;;;;6148071;23;21401;-78
2023/05/22 09:50:54;;;;;;;10.27;9.50;;;31.40;96.00;;;;;;6144998;23;20432;-77
2023/05/22 09:53:26;;;;;;;11.30;10.40;;;31.50;95.80;;;;;;6154315;23;20539;-77
2023/05/22 09:55:55;;;;;;;9.73;9.13;;;31.50;95.80;;;;;;6153216;23;20458;-76
2023/05/22 09:58:25;;;;;;;10.87;10.10;;;31.50;96.00;;;;;;6174264;23;20460;-77
2023/05/22 10:00:54;;;;;;;10.20;9.40;;;31.70;95.70;;;;;;6176459;23;20450;-76
2023/05/22 10:03:25;;;;;;;11.20;10.43;;;31.70;95.00;;;;;;6185968;23;20822;-77
2023/05/22 10:05:55;;;;;;;10.00;9.30;;;31.60;95.00;;;;;;6163985;23;20820;-77
2023/05/22 10:08:25;;;;;;;11.33;10.53;;;31.70;95.20;;;;;;6175252;23;20923;-77
2023/05/22 10:10:52;;;;;;;10.30;9.57;;;31.80;94.90;;;;;;6163651;23;20523;-77
2023/05/22 10:13:20;;;;;;;10.70;10.00;;;32.00;94.50;;;;;;6169148;23;20436;-77
2023/05/22 10:15:48;;;;;;;9.67;9.07;;;32.20;94.30;;;;;;6169760;23;20516;-78
2023/05/22 10:18:15;;;;;;;10.87;10.07;;;32.40;93.70;;;;;;6173390;23;20436;-78
2023/05/22 10:20:43;;;;;;;9.87;9.17;;;32.50;93.50;;;;;;6161096;23;20525;-78
2023/05/22 10:23:12;;;;;;;10.97;10.17;;;32.60;93.40;;;;;;6175202;23;20463;-77
2023/05/22 10:25:39;;;;;;;10.73;10.03;;;32.70;93.20;;;;;;6172194;23;20541;-77
2023/05/22 10:28:08;;;;;;;9.80;9.20;;;32.80;93.10;;;;;;6163096;23;20435;-77
2023/05/22 10:30:45;;;;;;;10.27;9.57;;;33.00;92.80;;;;;;6139002;23;21162;-77
2023/05/22 10:33:17;;;;;;;10.77;10.07;;;33.10;92.50;;;;;;6158645;23;20893;-78
2023/05/22 10:35:47;;;;;;;10.60;9.80;;;33.40;92.30;;;;;;6167721;23;20530;-77
2023/05/22 10:38:46;;;;;;;9.53;8.83;;;33.70;91.50;;;;;;6167584;23;20440;-78
2023/05/22 10:41:14;;;;;;;10.00;9.30;;;34.00;90.50;;;;;;6173252;23;20539;-77
2023/05/22 10:43:42;;;;;;;10.03;9.37;;;34.20;90.50;;;;;;6164407;23;20471;-76
2023/05/22 10:46:12;;;;;;;10.17;9.47;;;34.60;90.40;;;;;;6158196;23;20447;-78
2023/05/22 10:48:41;;;;;;;9.97;9.17;;;34.90;89.10;;;;;;6147103;23;20459;-78
2023/05/22 10:51:08;;;;;;;10.90;9.93;;;35.20;88.20;;;;;;6155212;23;20756;-78
2023/05/22 10:53:36;;;;;;;11.80;10.97;;;35.30;87.50;;;;;;6153831;23;20485;-77
2023/05/22 10:56:11;;;;;;;10.53;9.83;;;35.20;86.20;;;;;;6151254;23;20516;-77
2023/05/22 10:58:43;;;;;;;10.07;9.37;;;34.90;86.60;;;;;;6168715;23;21177;-78
2023/05/22 11:01:13;;;;;;;9.80;9.10;;;34.80;86.50;;;;;;6172289;23;20464;-78
2023/05/22 11:03:54;;;;;;;9.33;8.83;;;34.90;86.00;;;;;;6177665;23;20946;-77
2023/05/22 11:06:32;;;;;;;9.53;8.73;;;35.00;85.70;;;;;;6169632;23;20962;-78
2023/05/22 11:09:17;;;;;;;9.60;8.97;;;35.30;85.50;;;;;;6173321;23;20435;-78
2023/05/22 11:11:44;;;;;;;9.53;8.70;;;35.70;84.30;;;;;;6160368;23;20846;-78
2023/05/22 11:14:12;;;;;;;10.23;9.37;;;36.00;83.00;;;;;;6177016;23;20428;-78
2023/05/22 11:16:39;;;;;;;9.70;9.10;;;36.10;82.60;;;;;;6170196;23;20546;-78
2023/05/22 11:19:07;;;;;;;9.33;8.70;;;36.10;81.60;;;;;;6174855;23;20439;-78
2023/05/22 11:21:36;;;;;;;9.50;8.90;;;36.00;80.30;;;;;;6174848;23;20826;-78
2023/05/22 11:24:08;;;;;;;9.90;9.30;;;35.90;81.00;;;;;;6176615;23;20474;-78
2023/05/22 11:26:35;;;;;;;9.30;8.67;;;36.00;80.60;;;;;;6162346;23;20451;-78
2023/05/22 11:29:02;;;;;;;9.30;8.60;;;36.00;80.50;;;;;;6168458;23;20935;-78
2023/05/22 11:31:29;;;;;;;10.03;9.23;;;35.90;80.90;;;;;;6164514;23;20477;-78
2023/05/22 11:33:57;;;;;;;9.67;8.97;;;35.80;80.50;;;;;;6131087;23;20450;-78
2023/05/22 11:36:25;;;;;;;9.00;8.40;;;36.10;80.10;;;;;;6126399;23;20460;-78
2023/05/22 11:38:57;;;;;;;9.80;9.03;;;36.30;79.20;;;;;;6166549;23;20531;-78
2023/05/22 11:41:30;;;;;;;10.17;9.47;;;36.50;78.60;;;;;;6133419;23;20439;-78
2023/05/22 11:43:57;;;;;;;10.10;9.50;;;36.60;78.10;;;;;;6135567;23;20862;-78
2023/05/22 11:46:25;;;;;;;10.60;9.70;;;36.50;77.70;;;;;;6139449;23;20621;-78
2023/05/22 11:48:52;;;;;;;9.50;8.80;;;36.50;78.20;;;;;;6140762;23;20471;-77
2023/05/22 11:51:20;;;;;;;9.33;8.73;;;36.60;76.70;;;;;;6131085;23;20542;-78
2023/05/22 11:53:47;;;;;;;9.50;8.80;;;36.70;76.90;;;;;;6131014;23;20444;-78
2023/05/22 11:56:14;;;;;;;10.97;10.33;;;37.00;76.40;;;;;;6123989;23;21106;-78
2023/05/22 11:58:43;;;;;;;10.73;9.83;;;37.30;75.50;;;;;;6138381;23;20475;-78
2023/05/22 12:01:10;;;;;;;10.50;9.70;;;37.20;75.90;;;;;;6131766;23;20860;-78
2023/05/22 12:03:37;;;;;;;10.70;9.20;;;37.40;75.00;;;;;;6157796;23;20538;-78
2023/05/22 12:06:05;;;;;;;10.57;9.87;;;37.30;73.80;;;;;;6155896;23;20535;-78
2023/05/22 12:08:32;;;;;;;10.20;9.50;;;37.20;72.90;;;;;;6128501;23;20440;-78
2023/05/22 12:10:59;;;;;;;10.77;10.07;;;37.20;74.20;;;;;;6169624;23;20432;-78
2023/05/22 12:13:28;;;;;;;10.40;9.60;;;37.00;73.50;;;;;;6160533;23;20519;-78
2023/05/22 12:15:59;;;;;;;10.23;9.60;;;36.70;74.00;;;;;;6161158;23;20460;-78
2023/05/22 12:18:26;;;;;;;11.47;10.77;;;36.70;73.90;;;;;;6165306;23;20721;-78
2023/05/22 12:20:54;;;;;;;11.10;10.30;;;36.80;74.00;;;;;;6173448;23;20464;-78
2023/05/22 12:23:23;;;;;;;10.80;9.97;;;36.90;74.40;;;;;;6150198;23;20481;-78
2023/05/22 12:26:00;;;;;;;10.90;10.20;;;37.20;72.90;;;;;;6157433;23;22329;-78
2023/05/22 12:28:28;;;;;;;10.73;9.67;;;37.30;72.60;;;;;;6168619;23;20513;-78
2023/05/22 12:30:56;;;;;;;10.63;9.93;;;37.20;72.80;;;;;;6147647;23;20428;-78
2023/05/22 12:33:27;;;;;;;10.80;10.10;;;37.20;73.30;;;;;;6166134;23;20427;-79
2023/05/22 12:35:57;;;;;;;10.47;9.73;;;37.40;71.90;;;;;;6150252;23;20903;-78
2023/05/22 12:38:26;;;;;;;10.30;9.60;;;37.50;72.20;;;;;;6151131;23;20677;-78